sensor_id;sensor_type;location;lat;lon;timestamp;P1;durP1;ratioP1;P2;durP2;ratioP2
76443;SDS011;65282;51.362;10.082;2022-12-10T00:01:43;40.60;;;18.77;;
76443;SDS011;65282;51.362;10.082;2022-12-10T00:04:10;36.60;;;16.83;;
76443;SDS011;65282;51.362;10.082;2022-12-10T00:06:38;37.33;;;17.87;;
76443;SDS011;65282;51.362;10.082;2022-12-10T00:09:08;42.27;;;17.93;;
76443;SDS011;65282;51.362;10.082;2022-12-10T00:11:38;45.03;;;17.50;;
76443;SDS011;65282;51.362;10.082;2022-12-10T00:14:05;43.63;;;17.93;;
76443;SDS011;65282;51.362;10.082;2022-12-10T00:16:32;42.87;;;17.83;;
76443;SDS011;65282;51.362;10.082;2022-12-10T00:19:01;42.57;;;18.00;;
76443;SDS011;65282;51.362;10.082;2022-12-10T00:21:30;40.53;;;17.67;;
76443;SDS011;65282;51.362;10.082;2022-12-10T00:23:59;37.93;;;17.30;;
76443;SDS011;65282;51.362;10.082;2022-12-10T00:26:27;42.40;;;19.10;;
76443;SDS011;65282;51.362;10.082;2022-12-10T00:28:55;42.20;;;16.77;;
76443;SDS011;65282;51.362;10.082;2022-12-10T00:31:23;37.23;;;17.13;;
76443;SDS011;65282;51.362;10.082;2022-12-10T00:33:52;34.20;;;16.07;;
76443;SDS011;65282;51.362;10.082;2022-12-10T00:36:27;36.00;;;16.70;;
76443;SDS011;65282;51.362;10.082;2022-12-10T00:38:57;37.03;;;16.50;;
76443;SDS011;65282;51.362;10.082;2022-12-10T00:41:26;39.60;;;17.73;;
76443;SDS011;65282;51.362;10.082;2022-12-10T00:43:53;38.50;;;17.70;;
76443;SDS011;65282;51.362;10.082;2022-12-10T00:46:20;38.87;;;17.80;;
76443;SDS011;65282;51.362;10.082;2022-12-10T00:48:47;37.53;;;17.07;;
76443;SDS011;65282;51.362;10.082;2022-12-10T00:51:15;37.60;;;17.07;;
76443;SDS011;65282;51.362;10.082;2022-12-10T00:53:46;37.67;;;16.43;;
76443;SDS011;65282;51.362;10.082;2022-12-10T00:56:15;39.90;;;16.00;;
76443;SDS011;65282;51.362;10.082;2022-12-10T00:58:43;42.70;;;17.63;;
76443;SDS011;65282;51.362;10.082;2022-12-10T01:01:11;41.50;;;18.20;;
76443;SDS011;65282;51.362;10.082;2022-12-10T01:03:41;41.63;;;18.43;;
76443;SDS011;65282;51.362;10.082;2022-12-10T01:06:09;35.10;;;15.00;;
76443;SDS011;65282;51.362;10.082;2022-12-10T01:08:37;37.43;;;16.57;;
76443;SDS011;65282;51.362;10.082;2022-12-10T01:11:06;38.37;;;15.73;;
76443;SDS011;65282;51.362;10.082;2022-12-10T01:13:34;37.63;;;16.53;;
76443;SDS011;65282;51.362;10.082;2022-12-10T01:16:02;39.20;;;15.57;;
76443;SDS011;65282;51.362;10.082;2022-12-10T01:18:30;37.20;;;16.23;;
76443;SDS011;65282;51.362;10.082;2022-12-10T01:21:00;44.70;;;18.13;;
76443;SDS011;65282;51.362;10.082;2022-12-10T01:23:27;39.80;;;16.63;;
76443;SDS011;65282;51.362;10.082;2022-12-10T01:25:58;43.37;;;17.03;;
76443;SDS011;65282;51.362;10.082;2022-12-10T01:28:29;37.83;;;16.33;;
76443;SDS011;65282;51.362;10.082;2022-12-10T01:30:59;40.90;;;17.70;;
76443;SDS011;65282;51.362;10.082;2022-12-10T01:33:27;40.07;;;16.27;;
76443;SDS011;65282;51.362;10.082;2022-12-10T01:35:54;34.43;;;14.73;;
76443;SDS011;65282;51.362;10.082;2022-12-10T01:38:27;37.00;;;16.47;;
76443;SDS011;65282;51.362;10.082;2022-12-10T01:40:55;36.43;;;16.90;;
76443;SDS011;65282;51.362;10.082;2022-12-10T01:43:22;34.50;;;14.43;;
76443;SDS011;65282;51.362;10.082;2022-12-10T01:45:52;37.93;;;16.00;;
76443;SDS011;65282;51.362;10.082;2022-12-10T01:48:19;37.57;;;16.67;;
76443;SDS011;65282;51.362;10.082;2022-12-10T01:50:46;34.37;;;15.70;;
76443;SDS011;65282;51.362;10.082;2022-12-10T01:53:13;40.67;;;16.53;;
76443;SDS011;65282;51.362;10.082;2022-12-10T01:55:42;41.20;;;16.03;;
76443;SDS011;65282;51.362;10.082;2022-12-10T01:58:13;35.87;;;16.20;;
76443;SDS011;65282;51.362;10.082;2022-12-10T02:00:45;36.93;;;16.13;;
76443;SDS011;65282;51.362;10.082;2022-12-10T02:03:29;39.80;;;16.73;;
76443;SDS011;65282;51.362;10.082;2022-12-10T02:06:06;38.73;;;16.30;;
76443;SDS011;65282;51.362;10.082;2022-12-10T02:08:44;37.40;;;15.17;;
76443;SDS011;65282;51.362;10.082;2022-12-10T02:11:22;38.13;;;16.13;;
76443;SDS011;65282;51.362;10.082;2022-12-10T02:13:55;38.00;;;16.30;;
76443;SDS011;65282;51.362;10.082;2022-12-10T02:16:30;40.43;;;16.90;;
76443;SDS011;65282;51.362;10.082;2022-12-10T02:19:03;43.43;;;17.20;;
76443;SDS011;65282;51.362;10.082;2022-12-10T02:21:38;34.70;;;15.10;;
76443;SDS011;65282;51.362;10.082;2022-12-10T02:24:11;37.40;;;16.30;;
76443;SDS011;65282;51.362;10.082;2022-12-10T02:26:43;36.90;;;15.50;;
76443;SDS011;65282;51.362;10.082;2022-12-10T02:29:18;37.10;;;15.73;;
76443;SDS011;65282;51.362;10.082;2022-12-10T02:31:52;38.80;;;16.90;;
76443;SDS011;65282;51.362;10.082;2022-12-10T02:34:23;38.63;;;17.23;;
76443;SDS011;65282;51.362;10.082;2022-12-10T02:36:52;39.80;;;17.07;;
76443;SDS011;65282;51.362;10.082;2022-12-10T02:39:28;38.83;;;17.60;;
76443;SDS011;65282;51.362;10.082;2022-12-10T02:42:00;36.60;;;15.90;;
76443;SDS011;65282;51.362;10.082;2022-12-10T02:44:31;45.50;;;16.13;;
76443;SDS011;65282;51.362;10.082;2022-12-10T02:47:02;39.63;;;17.33;;
76443;SDS011;65282;51.362;10.082;2022-12-10T02:49:35;37.07;;;17.00;;
76443;SDS011;65282;51.362;10.082;2022-12-10T02:52:06;36.70;;;14.87;;
76443;SDS011;65282;51.362;10.082;2022-12-10T02:54:37;36.20;;;16.00;;
76443;SDS011;65282;51.362;10.082;2022-12-10T02:57:15;37.60;;;16.57;;
76443;SDS011;65282;51.362;10.082;2022-12-10T02:59:57;36.30;;;16.20;;
76443;SDS011;65282;51.362;10.082;2022-12-10T03:02:52;37.07;;;16.23;;
76443;SDS011;65282;51.362;10.082;2022-12-10T03:05:33;37.47;;;16.23;;
76443;SDS011;65282;51.362;10.082;2022-12-10T03:08:07;36.60;;;15.97;;
76443;SDS011;65282;51.362;10.082;2022-12-10T03:10:41;34.10;;;15.73;;
76443;SDS011;65282;51.362;10.082;2022-12-10T03:13:15;36.43;;;15.03;;
76443;SDS011;65282;51.362;10.082;2022-12-10T03:15:45;41.20;;;16.87;;
76443;SDS011;65282;51.362;10.082;2022-12-10T03:18:16;37.67;;;15.57;;
76443;SDS011;65282;51.362;10.082;2022-12-10T03:20:45;38.40;;;15.70;;
76443;SDS011;65282;51.362;10.082;2022-12-10T03:23:16;32.37;;;13.70;;
76443;SDS011;65282;51.362;10.082;2022-12-10T03:25:45;41.83;;;16.30;;
76443;SDS011;65282;51.362;10.082;2022-12-10T03:28:15;35.07;;;15.40;;
76443;SDS011;65282;51.362;10.082;2022-12-10T03:30:47;35.07;;;15.80;;
76443;SDS011;65282;51.362;10.082;2022-12-10T03:33:15;40.57;;;16.80;;
76443;SDS011;65282;51.362;10.082;2022-12-10T03:35:43;38.83;;;15.20;;
76443;SDS011;65282;51.362;10.082;2022-12-10T03:38:11;35.67;;;15.60;;
76443;SDS011;65282;51.362;10.082;2022-12-10T03:40:40;32.33;;;14.37;;
76443;SDS011;65282;51.362;10.082;2022-12-10T03:43:07;40.10;;;15.70;;
76443;SDS011;65282;51.362;10.082;2022-12-10T03:45:34;30.33;;;13.37;;
76443;SDS011;65282;51.362;10.082;2022-12-10T03:48:02;36.50;;;15.23;;
76443;SDS011;65282;51.362;10.082;2022-12-10T03:50:29;36.17;;;16.03;;
76443;SDS011;65282;51.362;10.082;2022-12-10T03:52:56;33.73;;;14.23;;
76443;SDS011;65282;51.362;10.082;2022-12-10T03:55:23;32.20;;;14.00;;
76443;SDS011;65282;51.362;10.082;2022-12-10T03:57:50;31.50;;;14.10;;
76443;SDS011;65282;51.362;10.082;2022-12-10T04:00:17;33.90;;;14.20;;
76443;SDS011;65282;51.362;10.082;2022-12-10T04:02:44;34.70;;;15.30;;
76443;SDS011;65282;51.362;10.082;2022-12-10T04:05:13;37.10;;;15.57;;
76443;SDS011;65282;51.362;10.082;2022-12-10T04:07:40;38.93;;;15.70;;
76443;SDS011;65282;51.362;10.082;2022-12-10T04:10:07;35.47;;;14.27;;
76443;SDS011;65282;51.362;10.082;2022-12-10T04:12:35;31.53;;;13.97;;
76443;SDS011;65282;51.362;10.082;2022-12-10T04:15:02;36.90;;;16.07;;
76443;SDS011;65282;51.362;10.082;2022-12-10T04:17:31;32.67;;;14.03;;
76443;SDS011;65282;51.362;10.082;2022-12-10T04:19:58;32.07;;;14.23;;
76443;SDS011;65282;51.362;10.082;2022-12-10T04:22:26;32.60;;;13.77;;
76443;SDS011;65282;51.362;10.082;2022-12-10T04:24:53;36.67;;;14.90;;
76443;SDS011;65282;51.362;10.082;2022-12-10T04:27:21;36.53;;;14.60;;
76443;SDS011;65282;51.362;10.082;2022-12-10T04:29:49;32.23;;;14.77;;
76443;SDS011;65282;51.362;10.082;2022-12-10T04:32:16;36.53;;;13.90;;
76443;SDS011;65282;51.362;10.082;2022-12-10T04:34:44;35.87;;;15.20;;
76443;SDS011;65282;51.362;10.082;2022-12-10T04:37:12;36.30;;;14.37;;
76443;SDS011;65282;51.362;10.082;2022-12-10T04:39:41;36.37;;;14.70;;
76443;SDS011;65282;51.362;10.082;2022-12-10T04:42:08;34.10;;;14.43;;
76443;SDS011;65282;51.362;10.082;2022-12-10T04:44:35;32.47;;;14.00;;
76443;SDS011;65282;51.362;10.082;2022-12-10T04:47:03;32.23;;;14.73;;
76443;SDS011;65282;51.362;10.082;2022-12-10T04:49:31;37.40;;;15.87;;
76443;SDS011;65282;51.362;10.082;2022-12-10T04:51:58;37.47;;;15.60;;
76443;SDS011;65282;51.362;10.082;2022-12-10T04:54:25;34.73;;;13.70;;
76443;SDS011;65282;51.362;10.082;2022-12-10T04:56:54;35.63;;;14.67;;
76443;SDS011;65282;51.362;10.082;2022-12-10T04:59:21;35.13;;;15.10;;
76443;SDS011;65282;51.362;10.082;2022-12-10T05:01:48;34.60;;;14.80;;
76443;SDS011;65282;51.362;10.082;2022-12-10T05:04:16;35.67;;;14.97;;
76443;SDS011;65282;51.362;10.082;2022-12-10T05:06:46;37.97;;;14.73;;
76443;SDS011;65282;51.362;10.082;2022-12-10T05:09:14;38.87;;;14.73;;
76443;SDS011;65282;51.362;10.082;2022-12-10T05:11:42;36.70;;;14.67;;
76443;SDS011;65282;51.362;10.082;2022-12-10T05:14:10;40.97;;;16.37;;
76443;SDS011;65282;51.362;10.082;2022-12-10T05:16:38;34.53;;;15.23;;
76443;SDS011;65282;51.362;10.082;2022-12-10T05:19:05;36.47;;;13.93;;
76443;SDS011;65282;51.362;10.082;2022-12-10T05:21:32;40.80;;;15.57;;
76443;SDS011;65282;51.362;10.082;2022-12-10T05:23:59;34.73;;;14.53;;
76443;SDS011;65282;51.362;10.082;2022-12-10T05:26:25;35.30;;;13.97;;
76443;SDS011;65282;51.362;10.082;2022-12-10T05:28:53;37.90;;;16.23;;
76443;SDS011;65282;51.362;10.082;2022-12-10T05:31:24;34.27;;;13.20;;
76443;SDS011;65282;51.362;10.082;2022-12-10T05:33:53;37.93;;;14.67;;
76443;SDS011;65282;51.362;10.082;2022-12-10T05:36:21;34.70;;;14.47;;
76443;SDS011;65282;51.362;10.082;2022-12-10T05:38:49;35.10;;;14.60;;
76443;SDS011;65282;51.362;10.082;2022-12-10T05:41:17;31.97;;;14.40;;
76443;SDS011;65282;51.362;10.082;2022-12-10T05:43:46;35.07;;;14.20;;
76443;SDS011;65282;51.362;10.082;2022-12-10T05:46:14;39.13;;;16.27;;
76443;SDS011;65282;51.362;10.082;2022-12-10T05:48:43;37.47;;;14.80;;
76443;SDS011;65282;51.362;10.082;2022-12-10T05:51:11;33.50;;;14.50;;
76443;SDS011;65282;51.362;10.082;2022-12-10T05:53:39;36.70;;;14.73;;
76443;SDS011;65282;51.362;10.082;2022-12-10T05:56:07;34.07;;;14.10;;
76443;SDS011;65282;51.362;10.082;2022-12-10T05:58:36;33.27;;;13.60;;
76443;SDS011;65282;51.362;10.082;2022-12-10T06:01:06;34.73;;;14.70;;
76443;SDS011;65282;51.362;10.082;2022-12-10T06:03:33;29.03;;;13.80;;
76443;SDS011;65282;51.362;10.082;2022-12-10T06:06:03;35.70;;;14.57;;
76443;SDS011;65282;51.362;10.082;2022-12-10T06:08:30;31.23;;;13.00;;
76443;SDS011;65282;51.362;10.082;2022-12-10T06:11:00;29.93;;;13.67;;
76443;SDS011;65282;51.362;10.082;2022-12-10T06:13:27;25.97;;;11.93;;
76443;SDS011;65282;51.362;10.082;2022-12-10T06:15:53;30.23;;;13.13;;
76443;SDS011;65282;51.362;10.082;2022-12-10T06:18:20;30.63;;;12.60;;
76443;SDS011;65282;51.362;10.082;2022-12-10T06:20:47;30.50;;;12.80;;
76443;SDS011;65282;51.362;10.082;2022-12-10T06:23:16;27.47;;;12.20;;
76443;SDS011;65282;51.362;10.082;2022-12-10T06:25:43;31.20;;;12.47;;
76443;SDS011;65282;51.362;10.082;2022-12-10T06:28:11;32.70;;;12.53;;
76443;SDS011;65282;51.362;10.082;2022-12-10T06:30:38;33.17;;;13.77;;
76443;SDS011;65282;51.362;10.082;2022-12-10T06:33:05;30.83;;;12.10;;
76443;SDS011;65282;51.362;10.082;2022-12-10T06:35:32;28.03;;;11.53;;
76443;SDS011;65282;51.362;10.082;2022-12-10T06:37:59;34.47;;;14.10;;
76443;SDS011;65282;51.362;10.082;2022-12-10T06:40:27;32.77;;;13.73;;
76443;SDS011;65282;51.362;10.082;2022-12-10T06:42:54;29.90;;;13.10;;
76443;SDS011;65282;51.362;10.082;2022-12-10T06:45:21;31.40;;;12.87;;
76443;SDS011;65282;51.362;10.082;2022-12-10T06:47:48;33.50;;;14.00;;
76443;SDS011;65282;51.362;10.082;2022-12-10T06:50:14;29.53;;;13.27;;
76443;SDS011;65282;51.362;10.082;2022-12-10T06:52:41;32.07;;;12.80;;
76443;SDS011;65282;51.362;10.082;2022-12-10T06:55:08;26.20;;;12.37;;
76443;SDS011;65282;51.362;10.082;2022-12-10T06:57:36;29.60;;;13.03;;
76443;SDS011;65282;51.362;10.082;2022-12-10T07:00:04;32.00;;;12.77;;
76443;SDS011;65282;51.362;10.082;2022-12-10T07:02:32;35.07;;;15.27;;
76443;SDS011;65282;51.362;10.082;2022-12-10T07:04:59;33.83;;;13.87;;
76443;SDS011;65282;51.362;10.082;2022-12-10T07:07:25;36.00;;;14.80;;
76443;SDS011;65282;51.362;10.082;2022-12-10T07:09:52;35.20;;;13.80;;
76443;SDS011;65282;51.362;10.082;2022-12-10T07:12:19;32.60;;;14.20;;
76443;SDS011;65282;51.362;10.082;2022-12-10T07:14:47;33.23;;;13.67;;
76443;SDS011;65282;51.362;10.082;2022-12-10T07:17:14;28.50;;;13.03;;
76443;SDS011;65282;51.362;10.082;2022-12-10T07:19:41;30.47;;;13.00;;
76443;SDS011;65282;51.362;10.082;2022-12-10T07:22:08;37.20;;;14.13;;
76443;SDS011;65282;51.362;10.082;2022-12-10T07:24:35;29.80;;;12.87;;
76443;SDS011;65282;51.362;10.082;2022-12-10T07:27:04;30.07;;;13.10;;
76443;SDS011;65282;51.362;10.082;2022-12-10T07:29:31;31.50;;;13.90;;
76443;SDS011;65282;51.362;10.082;2022-12-10T07:31:59;32.17;;;13.70;;
76443;SDS011;65282;51.362;10.082;2022-12-10T07:34:27;30.40;;;14.03;;
76443;SDS011;65282;51.362;10.082;2022-12-10T07:36:53;33.03;;;13.90;;
76443;SDS011;65282;51.362;10.082;2022-12-10T07:39:20;33.47;;;15.77;;
76443;SDS011;65282;51.362;10.082;2022-12-10T07:41:47;31.97;;;13.90;;
76443;SDS011;65282;51.362;10.082;2022-12-10T07:44:15;40.83;;;15.40;;
76443;SDS011;65282;51.362;10.082;2022-12-10T07:46:41;32.63;;;14.53;;
76443;SDS011;65282;51.362;10.082;2022-12-10T07:49:10;34.47;;;14.33;;
76443;SDS011;65282;51.362;10.082;2022-12-10T07:51:37;36.17;;;13.70;;
76443;SDS011;65282;51.362;10.082;2022-12-10T07:54:03;34.03;;;13.30;;
76443;SDS011;65282;51.362;10.082;2022-12-10T07:56:30;33.83;;;14.60;;
76443;SDS011;65282;51.362;10.082;2022-12-10T07:58:57;33.60;;;14.70;;
76443;SDS011;65282;51.362;10.082;2022-12-10T08:01:24;28.93;;;13.13;;
76443;SDS011;65282;51.362;10.082;2022-12-10T08:03:52;30.70;;;12.90;;
76443;SDS011;65282;51.362;10.082;2022-12-10T08:06:22;34.97;;;14.37;;
76443;SDS011;65282;51.362;10.082;2022-12-10T08:08:51;30.17;;;13.77;;
76443;SDS011;65282;51.362;10.082;2022-12-10T08:11:20;40.93;;;18.10;;
76443;SDS011;65282;51.362;10.082;2022-12-10T08:13:48;29.30;;;13.00;;
76443;SDS011;65282;51.362;10.082;2022-12-10T08:16:22;30.50;;;13.83;;
76443;SDS011;65282;51.362;10.082;2022-12-10T08:18:51;26.90;;;11.93;;
76443;SDS011;65282;51.362;10.082;2022-12-10T08:21:18;31.97;;;13.43;;
76443;SDS011;65282;51.362;10.082;2022-12-10T08:23:47;27.40;;;13.00;;
76443;SDS011;65282;51.362;10.082;2022-12-10T08:26:15;24.33;;;11.20;;
76443;SDS011;65282;51.362;10.082;2022-12-10T08:28:44;28.40;;;12.70;;
76443;SDS011;65282;51.362;10.082;2022-12-10T08:31:14;28.10;;;11.57;;
76443;SDS011;65282;51.362;10.082;2022-12-10T08:33:42;23.57;;;10.70;;
76443;SDS011;65282;51.362;10.082;2022-12-10T08:36:10;25.73;;;11.27;;
76443;SDS011;65282;51.362;10.082;2022-12-10T08:38:38;29.57;;;12.57;;
76443;SDS011;65282;51.362;10.082;2022-12-10T08:41:07;27.50;;;11.60;;
76443;SDS011;65282;51.362;10.082;2022-12-10T08:43:36;28.03;;;11.53;;
76443;SDS011;65282;51.362;10.082;2022-12-10T08:46:03;28.13;;;13.07;;
76443;SDS011;65282;51.362;10.082;2022-12-10T08:48:30;32.27;;;14.30;;
76443;SDS011;65282;51.362;10.082;2022-12-10T08:50:58;35.93;;;14.10;;
76443;SDS011;65282;51.362;10.082;2022-12-10T08:53:24;30.97;;;13.20;;
76443;SDS011;65282;51.362;10.082;2022-12-10T08:55:52;32.07;;;12.80;;
76443;SDS011;65282;51.362;10.082;2022-12-10T08:58:21;36.07;;;14.57;;
76443;SDS011;65282;51.362;10.082;2022-12-10T09:00:48;39.83;;;15.90;;
76443;SDS011;65282;51.362;10.082;2022-12-10T09:03:16;40.67;;;17.90;;
76443;SDS011;65282;51.362;10.082;2022-12-10T09:05:43;46.10;;;18.43;;
76443;SDS011;65282;51.362;10.082;2022-12-10T09:08:10;41.10;;;18.10;;
76443;SDS011;65282;51.362;10.082;2022-12-10T09:10:37;40.70;;;17.53;;
76443;SDS011;65282;51.362;10.082;2022-12-10T09:13:05;40.97;;;16.80;;
76443;SDS011;65282;51.362;10.082;2022-12-10T09:15:34;38.57;;;15.70;;
76443;SDS011;65282;51.362;10.082;2022-12-10T09:18:02;34.90;;;14.40;;
76443;SDS011;65282;51.362;10.082;2022-12-10T09:20:29;34.50;;;15.20;;
76443;SDS011;65282;51.362;10.082;2022-12-10T09:22:56;32.07;;;14.73;;
76443;SDS011;65282;51.362;10.082;2022-12-10T09:25:23;35.20;;;16.10;;
76443;SDS011;65282;51.362;10.082;2022-12-10T09:27:49;42.07;;;16.17;;
76443;SDS011;65282;51.362;10.082;2022-12-10T09:30:16;35.53;;;15.70;;
76443;SDS011;65282;51.362;10.082;2022-12-10T09:32:45;41.07;;;16.33;;
76443;SDS011;65282;51.362;10.082;2022-12-10T09:35:12;37.20;;;14.97;;
76443;SDS011;65282;51.362;10.082;2022-12-10T09:37:38;35.27;;;15.70;;
76443;SDS011;65282;51.362;10.082;2022-12-10T09:40:06;35.53;;;15.57;;
76443;SDS011;65282;51.362;10.082;2022-12-10T09:42:34;39.47;;;15.50;;
76443;SDS011;65282;51.362;10.082;2022-12-10T09:45:12;36.63;;;15.37;;
76443;SDS011;65282;51.362;10.082;2022-12-10T09:47:48;39.90;;;16.43;;
76443;SDS011;65282;51.362;10.082;2022-12-10T09:50:23;36.37;;;15.03;;
76443;SDS011;65282;51.362;10.082;2022-12-10T09:52:55;36.13;;;15.13;;
76443;SDS011;65282;51.362;10.082;2022-12-10T09:55:28;34.03;;;15.73;;
76443;SDS011;65282;51.362;10.082;2022-12-10T09:57:59;40.50;;;16.60;;
76443;SDS011;65282;51.362;10.082;2022-12-10T10:00:30;36.03;;;14.73;;
76443;SDS011;65282;51.362;10.082;2022-12-10T10:03:01;37.17;;;15.10;;
76443;SDS011;65282;51.362;10.082;2022-12-10T10:05:29;41.20;;;18.33;;
76443;SDS011;65282;51.362;10.082;2022-12-10T10:07:59;38.50;;;16.77;;
76443;SDS011;65282;51.362;10.082;2022-12-10T10:10:29;40.97;;;16.63;;
76443;SDS011;65282;51.362;10.082;2022-12-10T10:12:58;40.90;;;17.50;;
76443;SDS011;65282;51.362;10.082;2022-12-10T10:15:36;40.07;;;16.80;;
76443;SDS011;65282;51.362;10.082;2022-12-10T10:18:11;43.17;;;17.97;;
76443;SDS011;65282;51.362;10.082;2022-12-10T10:20:41;40.20;;;15.80;;
76443;SDS011;65282;51.362;10.082;2022-12-10T10:23:09;38.50;;;17.37;;
76443;SDS011;65282;51.362;10.082;2022-12-10T10:25:41;34.93;;;15.57;;
76443;SDS011;65282;51.362;10.082;2022-12-10T10:28:09;36.57;;;15.70;;
76443;SDS011;65282;51.362;10.082;2022-12-10T10:30:38;35.93;;;13.93;;
76443;SDS011;65282;51.362;10.082;2022-12-10T10:33:09;29.23;;;12.23;;
76443;SDS011;65282;51.362;10.082;2022-12-10T10:35:42;27.20;;;11.73;;
76443;SDS011;65282;51.362;10.082;2022-12-10T10:38:13;29.77;;;12.60;;
76443;SDS011;65282;51.362;10.082;2022-12-10T10:40:44;31.03;;;12.57;;
76443;SDS011;65282;51.362;10.082;2022-12-10T10:43:14;27.53;;;12.43;;
76443;SDS011;65282;51.362;10.082;2022-12-10T10:45:47;33.93;;;14.07;;
76443;SDS011;65282;51.362;10.082;2022-12-10T10:48:18;33.13;;;13.43;;
76443;SDS011;65282;51.362;10.082;2022-12-10T10:50:46;26.60;;;12.50;;
76443;SDS011;65282;51.362;10.082;2022-12-10T10:53:28;25.57;;;12.53;;
76443;SDS011;65282;51.362;10.082;2022-12-10T10:56:04;28.80;;;12.53;;
76443;SDS011;65282;51.362;10.082;2022-12-10T10:58:34;26.87;;;12.07;;
76443;SDS011;65282;51.362;10.082;2022-12-10T11:01:02;22.57;;;10.10;;
76443;SDS011;65282;51.362;10.082;2022-12-10T11:03:32;18.37;;;9.63;;
76443;SDS011;65282;51.362;10.082;2022-12-10T11:06:00;20.33;;;9.37;;
76443;SDS011;65282;51.362;10.082;2022-12-10T11:08:31;20.57;;;10.00;;
76443;SDS011;65282;51.362;10.082;2022-12-10T11:11:01;18.93;;;9.13;;
76443;SDS011;65282;51.362;10.082;2022-12-10T11:13:30;19.77;;;9.60;;
76443;SDS011;65282;51.362;10.082;2022-12-10T11:15:59;18.70;;;9.07;;
76443;SDS011;65282;51.362;10.082;2022-12-10T11:18:33;19.30;;;9.63;;
76443;SDS011;65282;51.362;10.082;2022-12-10T11:21:03;20.27;;;10.07;;
76443;SDS011;65282;51.362;10.082;2022-12-10T11:23:36;23.17;;;10.60;;
76443;SDS011;65282;51.362;10.082;2022-12-10T11:26:20;20.53;;;10.33;;
76443;SDS011;65282;51.362;10.082;2022-12-10T11:29:06;24.83;;;11.20;;
76443;SDS011;65282;51.362;10.082;2022-12-10T11:31:45;22.93;;;10.23;;
76443;SDS011;65282;51.362;10.082;2022-12-10T11:34:32;21.27;;;10.17;;
76443;SDS011;65282;51.362;10.082;2022-12-10T11:37:06;23.53;;;10.13;;
76443;SDS011;65282;51.362;10.082;2022-12-10T11:39:49;20.97;;;10.10;;
76443;SDS011;65282;51.362;10.082;2022-12-10T11:42:24;19.43;;;9.13;;
76443;SDS011;65282;51.362;10.082;2022-12-10T11:45:02;20.23;;;10.37;;
76443;SDS011;65282;51.362;10.082;2022-12-10T11:47:38;24.83;;;10.20;;
76443;SDS011;65282;51.362;10.082;2022-12-10T11:50:19;23.13;;;10.77;;
76443;SDS011;65282;51.362;10.082;2022-12-10T11:53:02;20.07;;;11.20;;
76443;SDS011;65282;51.362;10.082;2022-12-10T11:55:42;22.67;;;10.13;;
76443;SDS011;65282;51.362;10.082;2022-12-10T11:58:23;21.10;;;10.27;;
76443;SDS011;65282;51.362;10.082;2022-12-10T12:01:07;17.47;;;8.30;;
76443;SDS011;65282;51.362;10.082;2022-12-10T12:03:44;20.77;;;8.63;;
76443;SDS011;65282;51.362;10.082;2022-12-10T12:06:34;22.30;;;9.93;;
76443;SDS011;65282;51.362;10.082;2022-12-10T12:09:19;21.30;;;10.07;;
76443;SDS011;65282;51.362;10.082;2022-12-10T12:11:59;19.90;;;10.00;;
76443;SDS011;65282;51.362;10.082;2022-12-10T12:14:40;16.43;;;6.97;;
76443;SDS011;65282;51.362;10.082;2022-12-10T12:17:11;20.37;;;9.63;;
76443;SDS011;65282;51.362;10.082;2022-12-10T12:19:43;19.73;;;7.93;;
76443;SDS011;65282;51.362;10.082;2022-12-10T12:22:21;18.50;;;9.17;;
76443;SDS011;65282;51.362;10.082;2022-12-10T12:24:51;20.63;;;8.13;;
76443;SDS011;65282;51.362;10.082;2022-12-10T12:27:23;16.63;;;7.70;;
76443;SDS011;65282;51.362;10.082;2022-12-10T12:29:58;19.77;;;8.10;;
76443;SDS011;65282;51.362;10.082;2022-12-10T12:32:30;19.47;;;8.87;;
76443;SDS011;65282;51.362;10.082;2022-12-10T12:35:02;21.43;;;8.83;;
76443;SDS011;65282;51.362;10.082;2022-12-10T12:37:40;20.03;;;9.33;;
76443;SDS011;65282;51.362;10.082;2022-12-10T12:40:12;20.37;;;9.73;;
76443;SDS011;65282;51.362;10.082;2022-12-10T12:42:44;18.30;;;9.80;;
76443;SDS011;65282;51.362;10.082;2022-12-10T12:45:16;14.63;;;6.77;;
76443;SDS011;65282;51.362;10.082;2022-12-10T12:47:47;9.70;;;5.53;;
76443;SDS011;65282;51.362;10.082;2022-12-10T12:50:27;12.77;;;6.10;;
76443;SDS011;65282;51.362;10.082;2022-12-10T12:53:11;13.47;;;6.50;;
76443;SDS011;65282;51.362;10.082;2022-12-10T12:55:43;12.83;;;6.47;;
76443;SDS011;65282;51.362;10.082;2022-12-10T12:58:16;16.30;;;7.90;;
76443;SDS011;65282;51.362;10.082;2022-12-10T13:00:50;14.50;;;6.17;;
76443;SDS011;65282;51.362;10.082;2022-12-10T13:03:32;17.50;;;7.80;;
76443;SDS011;65282;51.362;10.082;2022-12-10T13:06:11;14.03;;;7.73;;
76443;SDS011;65282;51.362;10.082;2022-12-10T13:08:47;17.73;;;8.80;;
76443;SDS011;65282;51.362;10.082;2022-12-10T13:11:29;18.17;;;8.80;;
76443;SDS011;65282;51.362;10.082;2022-12-10T13:14:03;17.37;;;8.23;;
76443;SDS011;65282;51.362;10.082;2022-12-10T13:16:59;15.87;;;7.03;;
76443;SDS011;65282;51.362;10.082;2022-12-10T13:19:34;14.67;;;7.30;;
76443;SDS011;65282;51.362;10.082;2022-12-10T13:22:06;18.27;;;8.20;;
76443;SDS011;65282;51.362;10.082;2022-12-10T13:27:40;17.90;;;8.17;;
76443;SDS011;65282;51.362;10.082;2022-12-10T13:30:26;17.77;;;8.90;;
76443;SDS011;65282;51.362;10.082;2022-12-10T13:33:14;17.27;;;7.90;;
76443;SDS011;65282;51.362;10.082;2022-12-10T13:35:44;21.47;;;9.57;;
76443;SDS011;65282;51.362;10.082;2022-12-10T13:38:18;29.00;;;11.70;;
76443;SDS011;65282;51.362;10.082;2022-12-10T13:40:56;29.53;;;11.27;;
76443;SDS011;65282;51.362;10.082;2022-12-10T13:43:28;29.03;;;10.77;;
76443;SDS011;65282;51.362;10.082;2022-12-10T13:48:48;32.73;;;12.40;;
76443;SDS011;65282;51.362;10.082;2022-12-10T13:51:18;32.33;;;11.60;;
76443;SDS011;65282;51.362;10.082;2022-12-10T13:54:02;25.87;;;9.50;;
76443;SDS011;65282;51.362;10.082;2022-12-10T13:56:45;29.43;;;11.00;;
76443;SDS011;65282;51.362;10.082;2022-12-10T13:59:22;30.20;;;11.37;;
76443;SDS011;65282;51.362;10.082;2022-12-10T14:01:59;27.20;;;10.17;;
76443;SDS011;65282;51.362;10.082;2022-12-10T14:04:50;28.57;;;11.07;;
76443;SDS011;65282;51.362;10.082;2022-12-10T14:07:30;26.60;;;8.27;;
76443;SDS011;65282;51.362;10.082;2022-12-10T14:09:57;21.23;;;7.47;;
76443;SDS011;65282;51.362;10.082;2022-12-10T14:12:26;34.97;;;11.67;;
76443;SDS011;65282;51.362;10.082;2022-12-10T14:15:00;22.50;;;8.43;;
76443;SDS011;65282;51.362;10.082;2022-12-10T14:17:31;38.07;;;11.97;;
76443;SDS011;65282;51.362;10.082;2022-12-10T14:20:01;28.87;;;10.73;;
76443;SDS011;65282;51.362;10.082;2022-12-10T14:22:31;36.27;;;13.07;;
76443;SDS011;65282;51.362;10.082;2022-12-10T14:25:02;40.27;;;13.47;;
76443;SDS011;65282;51.362;10.082;2022-12-10T14:27:30;32.57;;;10.77;;
76443;SDS011;65282;51.362;10.082;2022-12-10T14:29:58;35.07;;;14.53;;
76443;SDS011;65282;51.362;10.082;2022-12-10T14:32:30;44.40;;;15.07;;
76443;SDS011;65282;51.362;10.082;2022-12-10T14:35:00;46.13;;;15.00;;
76443;SDS011;65282;51.362;10.082;2022-12-10T14:37:29;43.87;;;13.73;;